sensor_id;sensor_type;location;lat;lon;timestamp;pressure;altitude;pressure_sealevel;temperature;humidity
80333;BME280;69652;51.864;-2.246;2023-05-27T00:00:44;102928.38;;;15.11;47.27
80333;BME280;69652;51.864;-2.246;2023-05-27T00:03:09;102926.19;;;15.13;47.73
80333;BME280;69652;51.864;-2.246;2023-05-27T00:05:34;102924.84;;;15.06;48.48
80333;BME280;69652;51.864;-2.246;2023-05-27T00:08:00;102910.69;;;14.94;48.74
80333;BME280;69652;51.864;-2.246;2023-05-27T00:10:25;102914.78;;;14.91;46.98
80333;BME280;69652;51.864;-2.246;2023-05-27T00:12:51;102917.81;;;14.79;47.10
80333;BME280;69652;51.864;-2.246;2023-05-27T00:15:17;102913.22;;;14.75;46.44
80333;BME280;69652;51.864;-2.246;2023-05-27T00:17:43;102907.78;;;14.60;48.06
80333;BME280;69652;51.864;-2.246;2023-05-27T00:20:09;102912.94;;;14.66;47.75
80333;BME280;69652;51.864;-2.246;2023-05-27T00:22:35;102910.50;;;14.55;48.29
80333;BME280;69652;51.864;-2.246;2023-05-27T00:25:02;102911.06;;;14.62;48.82
80333;BME280;69652;51.864;-2.246;2023-05-27T00:27:27;102908.84;;;14.69;48.50
80333;BME280;69652;51.864;-2.246;2023-05-27T00:29:53;102904.50;;;14.58;47.86
80333;BME280;69652;51.864;-2.246;2023-05-27T00:32:18;102910.25;;;14.46;48.17
80333;BME280;69652;51.864;-2.246;2023-05-27T00:34:44;102902.34;;;14.44;48.45
80333;BME280;69652;51.864;-2.246;2023-05-27T00:37:10;102908.34;;;14.31;47.87
80333;BME280;69652;51.864;-2.246;2023-05-27T00:39:35;102907.53;;;14.26;49.33
80333;BME280;69652;51.864;-2.246;2023-05-27T00:42:01;102907.25;;;14.27;47.93
80333;BME280;69652;51.864;-2.246;2023-05-27T00:44:27;102901.25;;;14.10;49.05
80333;BME280;69652;51.864;-2.246;2023-05-27T00:46:53;102902.63;;;14.07;49.59
80333;BME280;69652;51.864;-2.246;2023-05-27T00:49:19;102901.81;;;14.12;48.70
80333;BME280;69652;51.864;-2.246;2023-05-27T00:51:45;102898.53;;;14.15;48.15
80333;BME280;69652;51.864;-2.246;2023-05-27T00:54:11;102905.59;;;14.06;49.14
80333;BME280;69652;51.864;-2.246;2023-05-27T00:56:37;102898.50;;;14.05;48.48
80333;BME280;69652;51.864;-2.246;2023-05-27T00:59:03;102905.91;;;13.99;48.92
80333;BME280;69652;51.864;-2.246;2023-05-27T01:01:28;102897.97;;;13.98;48.48
80333;BME280;69652;51.864;-2.246;2023-05-27T01:03:55;102895.53;;;13.91;48.66
80333;BME280;69652;51.864;-2.246;2023-05-27T01:06:38;102893.88;;;13.85;49.39
80333;BME280;69652;51.864;-2.246;2023-05-27T01:09:29;102894.44;;;13.77;49.38
80333;BME280;69652;51.864;-2.246;2023-05-27T01:14:28;102888.94;;;13.72;49.30
80333;BME280;69652;51.864;-2.246;2023-05-27T01:16:57;102885.97;;;13.68;49.38
80333;BME280;69652;51.864;-2.246;2023-05-27T01:19:28;102886.47;;;13.60;49.81
80333;BME280;69652;51.864;-2.246;2023-05-27T01:21:57;102889.19;;;13.50;51.37
80333;BME280;69652;51.864;-2.246;2023-05-27T01:24:23;102888.63;;;13.38;51.93
80333;BME280;69652;51.864;-2.246;2023-05-27T01:26:49;102879.63;;;13.32;51.68
80333;BME280;69652;51.864;-2.246;2023-05-27T01:29:14;102886.97;;;13.27;51.88
80333;BME280;69652;51.864;-2.246;2023-05-27T01:31:54;102880.13;;;13.19;52.63
80333;BME280;69652;51.864;-2.246;2023-05-27T01:34:27;102878.22;;;13.20;52.41
80333;BME280;69652;51.864;-2.246;2023-05-27T01:36:59;102870.50;;;13.12;52.56
80333;BME280;69652;51.864;-2.246;2023-05-27T01:39:27;102873.50;;;13.05;53.45
80333;BME280;69652;51.864;-2.246;2023-05-27T01:41:54;102880.28;;;13.02;52.78
80333;BME280;69652;51.864;-2.246;2023-05-27T01:44:21;102872.66;;;12.94;53.67
80333;BME280;69652;51.864;-2.246;2023-05-27T01:46:47;102870.19;;;12.93;53.64
80333;BME280;69652;51.864;-2.246;2023-05-27T01:49:12;102871.22;;;12.87;53.34
80333;BME280;69652;51.864;-2.246;2023-05-27T01:51:38;102871.78;;;12.89;54.16
80333;BME280;69652;51.864;-2.246;2023-05-27T01:54:04;102869.88;;;12.84;53.86
80333;BME280;69652;51.864;-2.246;2023-05-27T01:56:29;102873.94;;;12.82;53.31
80333;BME280;69652;51.864;-2.246;2023-05-27T01:58:55;102865.75;;;12.77;54.77
80333;BME280;69652;51.864;-2.246;2023-05-27T02:01:20;102868.50;;;12.82;54.70
80333;BME280;69652;51.864;-2.246;2023-05-27T02:03:47;102864.41;;;12.79;54.39
80333;BME280;69652;51.864;-2.246;2023-05-27T02:06:12;102877.44;;;12.72;54.41
80333;BME280;69652;51.864;-2.246;2023-05-27T02:08:38;102870.31;;;12.66;54.04
80333;BME280;69652;51.864;-2.246;2023-05-27T02:11:03;102872.47;;;12.64;55.13
80333;BME280;69652;51.864;-2.246;2023-05-27T02:13:29;102863.19;;;12.55;55.46
80333;BME280;69652;51.864;-2.246;2023-05-27T02:15:55;102859.06;;;12.52;55.56
80333;BME280;69652;51.864;-2.246;2023-05-27T02:18:21;102861.03;;;12.57;55.40
80333;BME280;69652;51.864;-2.246;2023-05-27T02:20:47;102864.81;;;12.56;56.28
80333;BME280;69652;51.864;-2.246;2023-05-27T02:23:12;102859.91;;;12.53;56.39
80333;BME280;69652;51.864;-2.246;2023-05-27T02:25:38;102865.34;;;12.53;55.60
80333;BME280;69652;51.864;-2.246;2023-05-27T02:28:03;102861.53;;;12.49;56.46
80333;BME280;69652;51.864;-2.246;2023-05-27T02:30:29;102866.16;;;12.48;55.91
80333;BME280;69652;51.864;-2.246;2023-05-27T02:32:56;102860.16;;;12.46;55.87
80333;BME280;69652;51.864;-2.246;2023-05-27T02:35:22;102859.84;;;12.43;56.44
80333;BME280;69652;51.864;-2.246;2023-05-27T02:37:48;102849.75;;;12.38;56.22
80333;BME280;69652;51.864;-2.246;2023-05-27T02:40:27;102857.06;;;12.33;56.59
80333;BME280;69652;51.864;-2.246;2023-05-27T02:42:52;102858.13;;;12.32;57.25
80333;BME280;69652;51.864;-2.246;2023-05-27T02:45:18;102854.91;;;12.35;56.34
80333;BME280;69652;51.864;-2.246;2023-05-27T02:47:44;102857.00;;;12.27;56.95
80333;BME280;69652;51.864;-2.246;2023-05-27T02:50:09;102863.00;;;12.24;57.31
80333;BME280;69652;51.864;-2.246;2023-05-27T02:52:35;102855.66;;;12.25;56.70
80333;BME280;69652;51.864;-2.246;2023-05-27T02:55:01;102859.41;;;12.19;56.67
80333;BME280;69652;51.864;-2.246;2023-05-27T02:57:26;102851.50;;;12.17;57.22
80333;BME280;69652;51.864;-2.246;2023-05-27T02:59:51;102854.22;;;12.12;57.51
80333;BME280;69652;51.864;-2.246;2023-05-27T03:02:17;102848.19;;;12.10;56.93
80333;BME280;69652;51.864;-2.246;2023-05-27T03:04:42;102851.13;;;12.04;57.86
80333;BME280;69652;51.864;-2.246;2023-05-27T03:07:08;102852.13;;;11.87;57.59
80333;BME280;69652;51.864;-2.246;2023-05-27T03:09:33;102849.91;;;11.84;57.00
80333;BME280;69652;51.864;-2.246;2023-05-27T03:11:59;102858.56;;;11.76;58.01
80333;BME280;69652;51.864;-2.246;2023-05-27T03:14:24;102859.28;;;11.72;58.49
80333;BME280;69652;51.864;-2.246;2023-05-27T03:16:50;102851.09;;;11.67;58.12
80333;BME280;69652;51.864;-2.246;2023-05-27T03:19:15;102854.31;;;11.64;58.48
80333;BME280;69652;51.864;-2.246;2023-05-27T03:21:41;102853.66;;;11.51;58.27
80333;BME280;69652;51.864;-2.246;2023-05-27T03:24:06;102854.06;;;11.38;59.66
80333;BME280;69652;51.864;-2.246;2023-05-27T03:26:32;102852.66;;;11.31;59.74
80333;BME280;69652;51.864;-2.246;2023-05-27T03:28:57;102855.56;;;11.24;59.68
80333;BME280;69652;51.864;-2.246;2023-05-27T03:31:22;102857.97;;;11.20;58.94
80333;BME280;69652;51.864;-2.246;2023-05-27T03:33:49;102851.34;;;11.11;59.57
80333;BME280;69652;51.864;-2.246;2023-05-27T03:36:14;102854.03;;;11.11;59.10
80333;BME280;69652;51.864;-2.246;2023-05-27T03:38:40;102849.91;;;11.04;60.38
80333;BME280;69652;51.864;-2.246;2023-05-27T03:41:05;102856.91;;;11.00;59.44
80333;BME280;69652;51.864;-2.246;2023-05-27T03:43:31;102851.09;;;10.91;60.06
80333;BME280;69652;51.864;-2.246;2023-05-27T03:45:56;102852.44;;;10.89;61.48
80333;BME280;69652;51.864;-2.246;2023-05-27T03:48:22;102851.84;;;10.86;61.33
80333;BME280;69652;51.864;-2.246;2023-05-27T03:50:47;102845.66;;;10.91;61.01
80333;BME280;69652;51.864;-2.246;2023-05-27T03:53:13;102848.38;;;10.91;62.39
80333;BME280;69652;51.864;-2.246;2023-05-27T03:55:38;102856.91;;;11.00;60.61
80333;BME280;69652;51.864;-2.246;2023-05-27T03:58:04;102855.22;;;10.94;60.34
80333;BME280;69652;51.864;-2.246;2023-05-27T04:00:29;102849.41;;;10.85;61.58
80333;BME280;69652;51.864;-2.246;2023-05-27T04:02:55;102853.44;;;10.82;61.04
80333;BME280;69652;51.864;-2.246;2023-05-27T04:05:21;102857.56;;;10.85;62.39
80333;BME280;69652;51.864;-2.246;2023-05-27T04:07:47;102855.09;;;10.83;62.00
80333;BME280;69652;51.864;-2.246;2023-05-27T04:10:12;102856.09;;;10.77;61.96
80333;BME280;69652;51.864;-2.246;2023-05-27T04:12:39;102864.44;;;10.71;62.21
80333;BME280;69652;51.864;-2.246;2023-05-27T04:15:06;102846.94;;;10.62;63.37
80333;BME280;69652;51.864;-2.246;2023-05-27T04:17:32;102858.34;;;10.64;62.75
80333;BME280;69652;51.864;-2.246;2023-05-27T04:19:58;102854.56;;;10.65;62.97
80333;BME280;69652;51.864;-2.246;2023-05-27T04:22:24;102844.47;;;10.60;63.53
80333;BME280;69652;51.864;-2.246;2023-05-27T04:24:52;102848.66;;;10.51;62.60
80333;BME280;69652;51.864;-2.246;2023-05-27T04:27:18;102849.13;;;10.43;63.85
80333;BME280;69652;51.864;-2.246;2023-05-27T04:29:44;102850.13;;;10.37;63.38
80333;BME280;69652;51.864;-2.246;2023-05-27T04:32:11;102847.66;;;10.35;64.27
80333;BME280;69652;51.864;-2.246;2023-05-27T04:34:37;102842.38;;;10.29;64.39
80333;BME280;69652;51.864;-2.246;2023-05-27T04:37:07;102844.38;;;10.33;63.38
80333;BME280;69652;51.864;-2.246;2023-05-27T04:39:35;102844.03;;;10.30;64.81
80333;BME280;69652;51.864;-2.246;2023-05-27T04:42:00;102848.41;;;10.31;65.32
80333;BME280;69652;51.864;-2.246;2023-05-27T04:44:26;102848.63;;;10.29;64.11
80333;BME280;69652;51.864;-2.246;2023-05-27T04:46:53;102845.28;;;10.22;64.67
80333;BME280;69652;51.864;-2.246;2023-05-27T04:49:20;102849.16;;;10.26;65.60
80333;BME280;69652;51.864;-2.246;2023-05-27T04:51:45;102844.84;;;10.30;64.69
80333;BME280;69652;51.864;-2.246;2023-05-27T04:54:12;102844.81;;;10.25;64.39
80333;BME280;69652;51.864;-2.246;2023-05-27T04:56:37;102842.38;;;10.29;64.16
80333;BME280;69652;51.864;-2.246;2023-05-27T04:59:03;102853.81;;;10.31;64.51
80333;BME280;69652;51.864;-2.246;2023-05-27T05:01:30;102846.75;;;10.30;64.27
80333;BME280;69652;51.864;-2.246;2023-05-27T05:04:04;102850.47;;;10.24;64.52
80333;BME280;69652;51.864;-2.246;2023-05-27T05:06:40;102844.97;;;10.19;65.07
80333;BME280;69652;51.864;-2.246;2023-05-27T05:09:05;102853.50;;;10.27;65.02
80333;BME280;69652;51.864;-2.246;2023-05-27T05:11:31;102846.44;;;10.26;65.12
80333;BME280;69652;51.864;-2.246;2023-05-27T05:13:56;102850.47;;;10.24;65.62
80333;BME280;69652;51.864;-2.246;2023-05-27T05:16:22;102849.91;;;10.22;65.41
80333;BME280;69652;51.864;-2.246;2023-05-27T05:18:47;102850.22;;;10.25;65.74
80333;BME280;69652;51.864;-2.246;2023-05-27T05:21:13;102849.22;;;10.31;64.24
80333;BME280;69652;51.864;-2.246;2023-05-27T05:23:38;102854.72;;;10.36;64.56
80333;BME280;69652;51.864;-2.246;2023-05-27T05:26:05;102854.50;;;10.38;63.74
80333;BME280;69652;51.864;-2.246;2023-05-27T05:28:32;102855.38;;;10.43;65.23
80333;BME280;69652;51.864;-2.246;2023-05-27T05:30:58;102858.09;;;10.43;64.62
80333;BME280;69652;51.864;-2.246;2023-05-27T05:33:23;102858.09;;;10.43;65.17
80333;BME280;69652;51.864;-2.246;2023-05-27T05:35:49;102857.09;;;10.49;65.30
80333;BME280;69652;51.864;-2.246;2023-05-27T05:38:14;102858.16;;;10.48;64.78
80333;BME280;69652;51.864;-2.246;2023-05-27T05:40:39;102852.63;;;10.60;64.53
80333;BME280;69652;51.864;-2.246;2023-05-27T05:43:05;102850.53;;;10.67;64.73
80333;BME280;69652;51.864;-2.246;2023-05-27T05:45:30;102850.19;;;10.64;64.51
80333;BME280;69652;51.864;-2.246;2023-05-27T05:47:57;102852.75;;;10.70;63.90
80333;BME280;69652;51.864;-2.246;2023-05-27T05:50:22;102848.75;;;10.78;64.19
80333;BME280;69652;51.864;-2.246;2023-05-27T05:52:48;102852.38;;;10.83;63.82
80333;BME280;69652;51.864;-2.246;2023-05-27T05:55:13;102849.97;;;10.87;63.69
80333;BME280;69652;51.864;-2.246;2023-05-27T05:57:38;102847.81;;;10.89;65.03
80333;BME280;69652;51.864;-2.246;2023-05-27T06:00:04;102850.59;;;10.94;64.25
80333;BME280;69652;51.864;-2.246;2023-05-27T06:02:30;102850.53;;;10.89;63.94
80333;BME280;69652;51.864;-2.246;2023-05-27T06:04:56;102839.16;;;10.92;64.23
80333;BME280;69652;51.864;-2.246;2023-05-27T06:07:21;102843.84;;;10.97;64.01
80333;BME280;69652;51.864;-2.246;2023-05-27T06:09:47;102844.72;;;11.02;64.14
80333;BME280;69652;51.864;-2.246;2023-05-27T06:12:13;102839.59;;;11.06;65.06
80333;BME280;69652;51.864;-2.246;2023-05-27T06:14:38;102841.81;;;11.09;64.54
80333;BME280;69652;51.864;-2.246;2023-05-27T06:17:04;102835.66;;;11.18;64.71
80333;BME280;69652;51.864;-2.246;2023-05-27T06:19:30;102822.50;;;11.32;63.54
80333;BME280;69652;51.864;-2.246;2023-05-27T06:21:55;102826.78;;;11.28;64.71
80333;BME280;69652;51.864;-2.246;2023-05-27T06:24:21;102828.06;;;11.47;64.42
80333;BME280;69652;51.864;-2.246;2023-05-27T06:26:46;102824.66;;;11.35;64.54
80333;BME280;69652;51.864;-2.246;2023-05-27T06:29:11;102829.75;;;11.53;64.27
80333;BME280;69652;51.864;-2.246;2023-05-27T06:31:37;102823.84;;;11.62;64.30
80333;BME280;69652;51.864;-2.246;2023-05-27T06:34:02;102822.25;;;11.66;63.75
80333;BME280;69652;51.864;-2.246;2023-05-27T06:36:28;102821.69;;;11.64;64.76
80333;BME280;69652;51.864;-2.246;2023-05-27T06:38:53;102822.84;;;11.73;63.88
80333;BME280;69652;51.864;-2.246;2023-05-27T06:41:19;102819.47;;;11.61;65.20
80333;BME280;69652;51.864;-2.246;2023-05-27T06:43:44;102820.88;;;11.63;64.94
80333;BME280;69652;51.864;-2.246;2023-05-27T06:46:10;102815.34;;;11.85;64.53
80333;BME280;69652;51.864;-2.246;2023-05-27T06:48:35;102806.75;;;11.98;64.07
80333;BME280;69652;51.864;-2.246;2023-05-27T06:51:01;102813.31;;;12.02;63.89
80333;BME280;69652;51.864;-2.246;2023-05-27T06:53:26;102816.63;;;12.09;63.66
80333;BME280;69652;51.864;-2.246;2023-05-27T06:55:52;102818.25;;;12.10;63.90
80333;BME280;69652;51.864;-2.246;2023-05-27T06:58:17;102808.25;;;12.21;64.19
80333;BME280;69652;51.864;-2.246;2023-05-27T07:00:43;102809.44;;;12.35;64.57
80333;BME280;69652;51.864;-2.246;2023-05-27T07:03:08;102808.13;;;12.48;63.79
80333;BME280;69652;51.864;-2.246;2023-05-27T07:05:34;102811.47;;;12.65;64.07
80333;BME280;69652;51.864;-2.246;2023-05-27T07:07:59;102794.63;;;12.78;63.05
80333;BME280;69652;51.864;-2.246;2023-05-27T07:10:25;102799.03;;;12.84;62.88
80333;BME280;69652;51.864;-2.246;2023-05-27T07:12:51;102794.38;;;12.90;63.46
80333;BME280;69652;51.864;-2.246;2023-05-27T07:15:16;102788.09;;;12.79;63.98
80333;BME280;69652;51.864;-2.246;2023-05-27T07:17:42;102787.31;;;12.94;63.37
80333;BME280;69652;51.864;-2.246;2023-05-27T07:20:08;102790.88;;;12.94;63.01
80333;BME280;69652;51.864;-2.246;2023-05-27T07:22:34;102790.59;;;12.86;63.28
80333;BME280;69652;51.864;-2.246;2023-05-27T07:24:59;102793.59;;;12.94;63.83
80333;BME280;69652;51.864;-2.246;2023-05-27T07:27:25;102786.75;;;12.82;64.67
80333;BME280;69652;51.864;-2.246;2023-05-27T07:29:50;102789.78;;;13.00;63.03
80333;BME280;69652;51.864;-2.246;2023-05-27T07:32:16;102788.72;;;13.07;63.69
80333;BME280;69652;51.864;-2.246;2023-05-27T07:34:41;102784.66;;;13.09;63.30
80333;BME280;69652;51.864;-2.246;2023-05-27T07:37:06;102785.25;;;13.21;63.20
80333;BME280;69652;51.864;-2.246;2023-05-27T07:39:37;102790.41;;;13.23;63.58
80333;BME280;69652;51.864;-2.246;2023-05-27T07:42:03;102783.06;;;13.28;62.13
80333;BME280;69652;51.864;-2.246;2023-05-27T07:44:28;102782.78;;;13.20;62.36
80333;BME280;69652;51.864;-2.246;2023-05-27T07:46:54;102773.25;;;13.37;62.26
80333;BME280;69652;51.864;-2.246;2023-05-27T07:49:19;102773.78;;;13.29;61.83
80333;BME280;69652;51.864;-2.246;2023-05-27T07:51:46;102774.06;;;13.48;61.55
80333;BME280;69652;51.864;-2.246;2023-05-27T07:54:11;102768.06;;;13.56;60.64
80333;BME280;69652;51.864;-2.246;2023-05-27T07:56:36;102760.69;;;13.36;61.21
80333;BME280;69652;51.864;-2.246;2023-05-27T07:59:02;102767.78;;;13.37;61.70
80333;BME280;69652;51.864;-2.246;2023-05-27T08:01:28;102764.50;;;13.51;61.26
80333;BME280;69652;51.864;-2.246;2023-05-27T08:03:56;102762.59;;;13.66;60.50
80333;BME280;69652;51.864;-2.246;2023-05-27T08:06:22;102760.13;;;13.75;60.93
80333;BME280;69652;51.864;-2.246;2023-05-27T08:08:47;102762.03;;;13.59;61.12
80333;BME280;69652;51.864;-2.246;2023-05-27T08:11:13;102753.56;;;13.81;61.23
80333;BME280;69652;51.864;-2.246;2023-05-27T08:13:39;102755.22;;;13.87;61.39
80333;BME280;69652;51.864;-2.246;2023-05-27T08:16:04;102751.34;;;13.98;60.25
80333;BME280;69652;51.864;-2.246;2023-05-27T08:18:29;102757.34;;;14.05;59.85
80333;BME280;69652;51.864;-2.246;2023-05-27T08:20:55;102741.72;;;14.21;59.17
80333;BME280;69652;51.864;-2.246;2023-05-27T08:23:20;102747.78;;;14.13;59.22
80333;BME280;69652;51.864;-2.246;2023-05-27T08:25:46;102741.72;;;14.16;59.29
80333;BME280;69652;51.864;-2.246;2023-05-27T08:28:11;102734.09;;;14.18;59.97
80333;BME280;69652;51.864;-2.246;2023-05-27T08:30:37;102731.28;;;14.43;58.50
80333;BME280;69652;51.864;-2.246;2023-05-27T08:33:02;102731.28;;;14.43;58.08
80333;BME280;69652;51.864;-2.246;2023-05-27T08:35:28;102726.09;;;14.42;58.25
80333;BME280;69652;51.864;-2.246;2023-05-27T08:37:53;102735.56;;;14.65;58.01
80333;BME280;69652;51.864;-2.246;2023-05-27T08:40:19;102736.91;;;14.72;57.84
80333;BME280;69652;51.864;-2.246;2023-05-27T08:42:48;102728.91;;;14.81;56.74
80333;BME280;69652;51.864;-2.246;2023-05-27T08:45:14;102732.19;;;14.78;57.20
80333;BME280;69652;51.864;-2.246;2023-05-27T08:47:41;102725.91;;;14.82;56.90
80333;BME280;69652;51.864;-2.246;2023-05-27T08:50:07;102717.91;;;14.91;56.87
80333;BME280;69652;51.864;-2.246;2023-05-27T08:52:33;102714.28;;;15.01;56.34
80333;BME280;69652;51.864;-2.246;2023-05-27T08:55:00;102711.94;;;14.84;57.85
80333;BME280;69652;51.864;-2.246;2023-05-27T08:57:30;102713.16;;;15.07;58.49
80333;BME280;69652;51.864;-2.246;2023-05-27T08:59:57;102705.72;;;15.12;57.80
80333;BME280;69652;51.864;-2.246;2023-05-27T09:02:23;102703.50;;;15.14;57.87
80333;BME280;69652;51.864;-2.246;2023-05-27T09:04:49;102706.53;;;15.13;58.88
80333;BME280;69652;51.864;-2.246;2023-05-27T09:07:15;102707.47;;;15.32;58.58
80333;BME280;69652;51.864;-2.246;2023-05-27T09:09:42;102700.47;;;15.50;56.98
80333;BME280;69652;51.864;-2.246;2023-05-27T09:12:07;102698.31;;;15.76;56.87
80333;BME280;69652;51.864;-2.246;2023-05-27T09:14:36;102693.31;;;15.83;55.77
80333;BME280;69652;51.864;-2.246;2023-05-27T09:17:08;102695.19;;;15.87;55.95
80333;BME280;69652;51.864;-2.246;2023-05-27T09:19:34;102697.81;;;15.98;56.12
80333;BME280;69652;51.864;-2.246;2023-05-27T09:22:00;102688.38;;;16.09;55.15
80333;BME280;69652;51.864;-2.246;2023-05-27T09:24:26;102688.88;;;16.11;55.29
80333;BME280;69652;51.864;-2.246;2023-05-27T09:26:53;102682.03;;;16.32;53.21
80333;BME280;69652;51.864;-2.246;2023-05-27T09:29:20;102683.97;;;16.32;53.85
80333;BME280;69652;51.864;-2.246;2023-05-27T09:31:48;102680.97;;;16.52;52.25
80333;BME280;69652;51.864;-2.246;2023-05-27T09:34:16;102682.69;;;16.85;52.61
80333;BME280;69652;51.864;-2.246;2023-05-27T09:36:47;102671.50;;;16.82;51.22
80333;BME280;69652;51.864;-2.246;2023-05-27T09:39:22;102667.63;;;16.64;52.01
80333;BME280;69652;51.864;-2.246;2023-05-27T09:41:52;102665.41;;;16.66;52.13
80333;BME280;69652;51.864;-2.246;2023-05-27T09:44:18;102656.66;;;16.83;52.19
80333;BME280;69652;51.864;-2.246;2023-05-27T09:46:44;102660.22;;;16.83;51.84
80333;BME280;69652;51.864;-2.246;2023-05-27T09:49:15;102660.81;;;16.99;52.10
80333;BME280;69652;51.864;-2.246;2023-05-27T09:51:42;102658.59;;;17.15;51.35
80333;BME280;69652;51.864;-2.246;2023-05-27T09:54:08;102648.22;;;17.12;50.72
80333;BME280;69652;51.864;-2.246;2023-05-27T09:56:34;102646.78;;;17.33;49.76
80333;BME280;69652;51.864;-2.246;2023-05-27T09:59:00;102638.53;;;17.47;50.69
80333;BME280;69652;51.864;-2.246;2023-05-27T10:01:27;102642.56;;;17.68;49.24
80333;BME280;69652;51.864;-2.246;2023-05-27T10:03:54;102638.69;;;17.83;48.90
80333;BME280;69652;51.864;-2.246;2023-05-27T10:06:22;102632.72;;;17.81;49.16
80333;BME280;69652;51.864;-2.246;2023-05-27T10:08:49;102635.94;;;17.96;48.35
80333;BME280;69652;51.864;-2.246;2023-05-27T10:11:17;102630.66;;;18.63;46.44
80333;BME280;69652;51.864;-2.246;2023-05-27T10:13:44;102631.31;;;19.84;43.70
80333;BME280;69652;51.864;-2.246;2023-05-27T10:16:21;102625.88;;;21.13;40.18
80333;BME280;69652;51.864;-2.246;2023-05-27T10:18:57;102617.84;;;22.14;39.69
80333;BME280;69652;51.864;-2.246;2023-05-27T10:21:27;102608.19;;;22.41;37.41
80333;BME280;69652;51.864;-2.246;2023-05-27T10:23:57;102609.78;;;22.83;38.49
80333;BME280;69652;51.864;-2.246;2023-05-27T10:26:38;102611.03;;;23.19;35.67
80333;BME280;69652;51.864;-2.246;2023-05-27T10:29:08;102606.38;;;23.56;36.31
80333;BME280;69652;51.864;-2.246;2023-05-27T10:31:34;102603.03;;;23.05;36.05
80333;BME280;69652;51.864;-2.246;2023-05-27T10:33:59;102609.84;;;23.53;36.22
80333;BME280;69652;51.864;-2.246;2023-05-27T10:36:26;102605.72;;;23.14;35.83
80333;BME280;69652;51.864;-2.246;2023-05-27T10:38:55;102597.81;;;23.36;35.80
80333;BME280;69652;51.864;-2.246;2023-05-27T10:41:22;102590.09;;;23.54;35.21
80333;BME280;69652;51.864;-2.246;2023-05-27T10:43:57;102580.72;;;23.47;35.58
80333;BME280;69652;51.864;-2.246;2023-05-27T10:46:23;102587.06;;;23.47;34.61
80333;BME280;69652;51.864;-2.246;2023-05-27T10:48:48;102582.75;;;23.98;33.64
80333;BME280;69652;51.864;-2.246;2023-05-27T10:51:14;102572.50;;;23.74;33.70
80333;BME280;69652;51.864;-2.246;2023-05-27T10:53:39;102574.81;;;23.36;33.57
80333;BME280;69652;51.864;-2.246;2023-05-27T10:56:05;102573.91;;;23.44;34.62
80333;BME280;69652;51.864;-2.246;2023-05-27T10:58:38;102574.44;;;23.25;34.75
80333;BME280;69652;51.864;-2.246;2023-05-27T11:01:14;102578.41;;;22.91;35.01
80333;BME280;69652;51.864;-2.246;2023-05-27T11:03:45;102563.31;;;22.89;36.39
80333;BME280;69652;51.864;-2.246;2023-05-27T11:06:13;102565.88;;;22.73;34.40
80333;BME280;69652;51.864;-2.246;2023-05-27T11:08:40;102563.88;;;22.82;33.92
80333;BME280;69652;51.864;-2.246;2023-05-27T11:11:10;102551.47;;;23.13;33.85
80333;BME280;69652;51.864;-2.246;2023-05-27T11:13:45;102553.31;;;23.09;34.00
80333;BME280;69652;51.864;-2.246;2023-05-27T11:16:12;102553.63;;;22.62;34.52
80333;BME280;69652;51.864;-2.246;2023-05-27T11:18:41;102550.75;;;23.03;35.46
80333;BME280;69652;51.864;-2.246;2023-05-27T11:21:08;102552.47;;;22.96;33.59
80333;BME280;69652;51.864;-2.246;2023-05-27T11:23:39;102546.50;;;23.06;34.25
80333;BME280;69652;51.864;-2.246;2023-05-27T11:26:22;102535.56;;;23.46;33.94
80333;BME280;69652;51.864;-2.246;2023-05-27T11:28:49;102536.00;;;23.72;34.11
80333;BME280;69652;51.864;-2.246;2023-05-27T11:31:16;102529.31;;;23.61;34.92
80333;BME280;69652;51.864;-2.246;2023-05-27T11:33:44;102524.72;;;23.53;34.08
80333;BME280;69652;51.864;-2.246;2023-05-27T11:36:15;102525.03;;;23.64;33.29
80333;BME280;69652;51.864;-2.246;2023-05-27T11:38:59;102519.03;;;23.62;33.56
80333;BME280;69652;51.864;-2.246;2023-05-27T11:41:26;102513.63;;;23.65;34.49
80333;BME280;69652;51.864;-2.246;2023-05-27T11:44:04;102502.72;;;24.53;32.80
80333;BME280;69652;51.864;-2.246;2023-05-27T11:46:42;102506.66;;;24.67;31.74
80333;BME280;69652;51.864;-2.246;2023-05-27T11:49:16;102501.78;;;25.08;30.84
80333;BME280;69652;51.864;-2.246;2023-05-27T11:51:44;102500.63;;;24.93;30.50
80333;BME280;69652;51.864;-2.246;2023-05-27T11:54:25;102493.06;;;24.78;30.85
80333;BME280;69652;51.864;-2.246;2023-05-27T11:56:52;102489.03;;;24.75;31.46
80333;BME280;69652;51.864;-2.246;2023-05-27T11:59:20;102478.09;;;25.30;30.51
80333;BME280;69652;51.864;-2.246;2023-05-27T12:01:48;102471.13;;;25.20;31.37
80333;BME280;69652;51.864;-2.246;2023-05-27T12:04:13;102463.22;;;25.57;30.63
80333;BME280;69652;51.864;-2.246;2023-05-27T12:06:39;102461.78;;;25.63;29.50
80333;BME280;69652;51.864;-2.246;2023-05-27T12:09:09;102456.75;;;25.34;29.13
80333;BME280;69652;51.864;-2.246;2023-05-27T12:11:35;102453.41;;;26.17;29.19
80333;BME280;69652;51.864;-2.246;2023-05-27T12:14:04;102454.28;;;26.02;30.55
80333;BME280;69652;51.864;-2.246;2023-05-27T12:16:31;102454.66;;;25.46;31.59
80333;BME280;69652;51.864;-2.246;2023-05-27T12:18:58;102447.56;;;25.84;30.66
80333;BME280;69652;51.864;-2.246;2023-05-27T12:21:24;102446.16;;;25.94;29.94
80333;BME280;69652;51.864;-2.246;2023-05-27T12:23:50;102448.38;;;26.69;28.93
80333;BME280;69652;51.864;-2.246;2023-05-27T12:26:16;102441.44;;;26.36;28.92
80333;BME280;69652;51.864;-2.246;2023-05-27T12:28:43;102434.94;;;26.97;25.84
80333;BME280;69652;51.864;-2.246;2023-05-27T12:31:09;102430.13;;;26.48;26.95
80333;BME280;69652;51.864;-2.246;2023-05-27T12:33:35;102431.03;;;26.79;27.75
80333;BME280;69652;51.864;-2.246;2023-05-27T12:36:02;102431.47;;;27.30;27.48
80333;BME280;69652;51.864;-2.246;2023-05-27T12:38:27;102415.81;;;27.22;27.33
80333;BME280;69652;51.864;-2.246;2023-05-27T12:40:56;102410.59;;;27.47;27.56